createdAt,value
2022-10-23T03:58:56.011Z,1010.26
2022-10-23T03:59:56.139Z,1010.24
2022-10-23T04:00:56.291Z,1010.29
2022-10-23T04:01:56.531Z,1010.21
2022-10-23T04:02:58.109Z,1010.16
2022-10-23T04:03:56.642Z,1010.18
2022-10-23T04:04:58.386Z,1010.18
2022-10-23T04:05:56.949Z,1010.13
2022-10-23T04:06:57.060Z,1010.13
2022-10-23T04:07:57.204Z,1010.07
2022-10-23T04:08:57.346Z,1010.07
2022-10-23T04:09:58.578Z,1010.03
2022-10-23T04:10:57.626Z,1010.02
2022-10-23T04:11:57.771Z,1009.99
2022-10-23T04:12:59.523Z,1010.03
2022-10-23T04:13:59.708Z,1010.00
2022-10-23T04:14:58.203Z,1009.97
2022-10-23T04:15:59.289Z,1009.95
2022-10-23T04:16:58.476Z,1009.97
2022-10-23T04:17:58.646Z,1009.97
2022-10-23T04:19:00.351Z,1010.00
2022-10-23T04:19:58.885Z,1010.00
2022-10-23T04:21:00.610Z,1010.01
2022-10-23T04:21:59.167Z,1010.01
2022-10-23T04:22:59.307Z,1009.98
2022-10-23T04:23:59.450Z,1009.99
2022-10-23T04:24:59.625Z,1009.93
2022-10-23T04:25:59.757Z,1009.89
2022-10-23T04:27:01.487Z,1009.89
2022-10-23T04:28:01.737Z,1009.91
2022-10-23T04:29:00.214Z,1009.97
2022-10-23T04:30:00.337Z,1009.91
2022-10-23T04:31:00.488Z,1009.93
2022-10-23T04:32:02.210Z,1009.97
2022-10-23T04:33:00.795Z,1009.94
2022-10-23T04:34:02.584Z,1009.96
2022-10-23T04:35:01.075Z,1009.92
2022-10-23T04:36:02.790Z,1009.93
2022-10-23T04:37:01.345Z,1009.98
2022-10-23T04:38:01.488Z,1009.97
2022-10-23T04:39:03.715Z,1009.97
2022-10-23T04:40:01.735Z,1009.95
2022-10-23T04:41:02.707Z,1009.95
2022-10-23T04:42:03.604Z,1009.94
2022-10-23T04:43:02.234Z,1009.97
2022-10-23T04:44:02.325Z,1009.93
2022-10-23T04:45:04.045Z,1009.90
2022-10-23T04:46:04.274Z,1009.89
2022-10-23T04:47:02.743Z,1009.86
2022-10-23T04:48:02.920Z,1009.84
2022-10-23T04:49:04.104Z,1009.80
2022-10-23T04:50:04.800Z,1009.78
2022-10-23T04:51:03.308Z,1009.76
2022-10-23T04:52:03.432Z,1009.80
2022-10-23T04:53:03.590Z,1009.78
2022-10-23T04:54:05.306Z,1009.76
2022-10-23T04:55:03.886Z,1009.79
2022-10-23T04:56:05.591Z,1009.79
2022-10-23T04:57:04.163Z,1009.85
2022-10-23T04:58:04.305Z,1009.88
2022-10-23T05:00:04.551Z,1009.83
2022-10-23T05:01:06.411Z,1009.80
2022-10-23T05:02:04.841Z,1009.79
2022-10-23T05:03:05.904Z,1009.76
2022-10-23T05:04:05.112Z,1009.79
2022-10-23T05:05:06.199Z,1009.76
2022-10-23T05:06:06.973Z,1009.77
2022-10-23T05:07:05.581Z,1009.75
2022-10-23T05:08:05.706Z,1009.78
2022-10-23T05:09:05.853Z,1009.77
2022-10-23T05:10:05.991Z,1009.70
2022-10-23T05:11:07.718Z,1009.72
2022-10-23T05:12:06.272Z,1009.70
2022-10-23T05:13:06.430Z,1009.66
2022-10-23T05:14:08.155Z,1009.65
2022-10-23T05:15:06.680Z,1009.65
2022-10-23T05:16:06.816Z,1009.62
2022-10-23T05:17:08.539Z,1009.60
2022-10-23T05:18:07.109Z,1009.59
2022-10-23T05:19:08.831Z,1009.57
2022-10-23T05:20:07.409Z,1009.57
2022-10-23T05:21:07.571Z,1009.61
2022-10-23T05:22:07.719Z,1009.63
2022-10-23T05:23:09.449Z,1009.64
2022-10-23T05:24:07.918Z,1009.62
2022-10-23T05:25:08.069Z,1009.64
2022-10-23T05:26:08.189Z,1009.61
2022-10-23T05:27:09.918Z,1009.58
2022-10-23T05:28:08.500Z,1009.54
2022-10-23T05:29:09.579Z,1009.53
2022-10-23T05:30:08.760Z,1009.52
2022-10-23T05:31:08.890Z,1009.51
2022-10-23T05:32:10.630Z,1009.51
2022-10-23T05:33:09.143Z,1009.45
2022-10-23T05:34:11.271Z,1009.47
2022-10-23T05:35:10.990Z,1009.49
2022-10-23T05:36:09.582Z,1009.47
2022-10-23T05:37:09.720Z,1009.52
2022-10-23T05:38:11.464Z,1009.47
2022-10-23T05:39:10.986Z,1009.43
2022-10-23T05:40:10.158Z,1009.49
2022-10-23T05:41:10.299Z,1009.46
2022-10-23T05:42:10.456Z,1009.44
2022-10-23T05:43:12.169Z,1009.38
2022-10-23T05:44:10.734Z,1009.32
2022-10-23T05:45:10.929Z,1009.35
2022-10-23T05:46:11.003Z,1009.32
2022-10-23T05:47:11.097Z,1009.27
2022-10-23T05:48:22.740Z,1009.23
2022-10-23T05:49:14.277Z,1009.25
2022-10-23T05:50:11.464Z,1009.23
2022-10-23T05:51:13.176Z,1009.27
2022-10-23T05:52:11.716Z,1009.28
2022-10-23T05:53:12.832Z,1009.26
2022-10-23T05:54:12.034Z,1009.24
2022-10-23T05:55:13.784Z,1009.26
2022-10-23T05:56:12.320Z,1009.22
2022-10-23T05:57:12.454Z,1009.23
2022-10-23T05:58:12.524Z,1009.21
2022-10-23T05:59:12.647Z,1009.20
2022-10-23T06:00:14.377Z,1009.22
2022-10-23T06:01:13.873Z,1009.22
2022-10-23T06:02:13.034Z,1009.17
2022-10-23T06:03:13.142Z,1009.23
2022-10-23T06:04:14.865Z,1009.20
2022-10-23T06:05:13.399Z,1009.20
2022-10-23T06:06:13.526Z,1009.13
2022-10-23T06:07:13.622Z,1009.15
2022-10-23T06:08:13.803Z,1009.17
2022-10-23T06:09:15.528Z,1009.17
2022-10-23T06:10:14.072Z,1009.12
2022-10-23T06:11:15.804Z,1009.10
2022-10-23T06:12:14.336Z,1009.11
2022-10-23T06:13:14.526Z,1009.06
2022-10-23T06:14:16.209Z,1009.11
2022-10-23T06:15:14.789Z,1009.14
2022-10-23T06:16:16.541Z,1009.15
2022-10-23T06:17:16.732Z,1009.15
2022-10-23T06:18:15.223Z,1009.14
2022-10-23T06:19:16.342Z,1009.21
2022-10-23T06:20:17.072Z,1009.18
2022-10-23T06:21:17.301Z,1009.18
2022-10-23T06:22:15.790Z,1009.20
2022-10-23T06:23:15.889Z,1009.20
2022-10-23T06:24:15.988Z,1009.19
2022-10-23T06:25:17.700Z,1009.14
2022-10-23T06:26:17.240Z,1009.20
2022-10-23T06:27:16.379Z,1009.17
2022-10-23T06:28:18.355Z,1009.19
2022-10-23T06:29:18.313Z,1009.16
2022-10-23T06:30:18.499Z,1009.14
2022-10-23T06:31:18.745Z,1009.18
2022-10-23T06:32:17.121Z,1009.17
2022-10-23T06:33:18.849Z,1009.15
2022-10-23T06:34:19.071Z,1009.10
2022-10-23T06:35:17.442Z,1009.12
2022-10-23T06:36:19.181Z,1009.06
2022-10-23T06:37:17.728Z,1009.08
2022-10-23T06:38:17.889Z,1009.06
2022-10-23T06:39:18.057Z,1009.06
2022-10-23T06:40:18.201Z,1009.05
2022-10-23T06:41:19.928Z,1009.06
2022-10-23T06:42:18.518Z,1009.05
2022-10-23T06:43:18.660Z,1009.10
2022-10-23T06:44:18.838Z,1009.05
2022-10-23T06:45:20.568Z,1009.06
2022-10-23T06:46:19.087Z,1009.10
2022-10-23T06:47:19.269Z,1009.11
2022-10-23T06:48:19.368Z,1009.11
2022-10-23T06:49:19.485Z,1009.13
2022-10-23T06:50:21.221Z,1009.12
2022-10-23T06:51:19.706Z,1009.10
2022-10-23T06:52:34.882Z,1009.12
2022-10-23T06:53:20.959Z,1009.08
2022-10-23T06:54:20.107Z,1009.12
2022-10-23T06:55:21.806Z,1009.07
2022-10-23T06:56:22.076Z,1009.08
2022-10-23T06:57:22.257Z,1009.08
2022-10-23T06:58:22.491Z,1009.08
2022-10-23T06:59:20.762Z,1009.07
2022-10-23T07:00:20.910Z,1008.98
2022-10-23T07:01:22.857Z,1008.99
2022-10-23T07:02:21.115Z,1008.96
2022-10-23T07:03:21.276Z,1008.98
2022-10-23T07:04:21.453Z,1008.97
2022-10-23T07:05:23.158Z,1009.02
2022-10-23T07:06:21.698Z,1009.06
2022-10-23T07:07:21.855Z,1009.08
2022-10-23T07:08:22.005Z,1009.05
2022-10-23T07:09:23.724Z,1009.10
2022-10-23T07:10:22.315Z,1009.16
2022-10-23T07:11:24.046Z,1009.16
2022-10-23T07:12:22.635Z,1009.14
2022-10-23T07:13:24.345Z,1009.15
2022-10-23T07:14:22.890Z,1009.18
2022-10-23T07:15:23.043Z,1009.11
2022-10-23T07:16:23.159Z,1009.17
2022-10-23T07:17:23.265Z,1009.18
2022-10-23T07:18:25.047Z,1009.18
2022-10-23T07:19:25.222Z,1009.21
2022-10-23T07:20:23.654Z,1009.21
2022-10-23T07:21:25.382Z,1009.22
2022-10-23T07:22:23.943Z,1009.26
2022-10-23T07:23:25.642Z,1009.27
2022-10-23T07:24:24.255Z,1009.25
2022-10-23T07:25:25.990Z,1009.27
2022-10-23T07:26:24.462Z,1009.23
2022-10-23T07:27:26.192Z,1009.28
2022-10-23T07:28:24.684Z,1009.29
2022-10-23T07:29:26.411Z,1009.27
2022-10-23T07:30:26.651Z,1009.28
2022-10-23T07:31:28.072Z,1009.32
2022-10-23T07:32:25.260Z,1009.29
2022-10-23T07:33:26.982Z,1009.23
2022-10-23T07:34:26.682Z,1009.21
2022-10-23T07:35:27.413Z,1009.17
2022-10-23T07:36:26.772Z,1009.16
2022-10-23T07:37:27.515Z,1009.13
2022-10-23T07:38:26.091Z,1009.18
2022-10-23T07:39:27.811Z,1009.16
2022-10-23T07:40:26.410Z,1009.17
2022-10-23T07:41:28.131Z,1009.15
2022-10-23T07:42:26.654Z,1009.09
2022-10-23T07:43:28.412Z,1009.21
2022-10-23T07:44:27.766Z,1009.13
2022-10-23T07:45:28.601Z,1009.14
2022-10-23T07:46:28.831Z,1009.13
2022-10-23T07:47:27.316Z,1009.11
2022-10-23T07:48:29.029Z,1009.09
2022-10-23T07:49:27.575Z,1009.03
2022-10-23T07:50:29.342Z,1009.00
2022-10-23T07:51:29.069Z,1009.01
2022-10-23T07:52:32.169Z,1009.02
2022-10-23T07:53:30.196Z,1009.01
2022-10-23T07:54:29.916Z,1009.01
2022-10-23T07:55:30.151Z,1008.97
2022-10-23T07:56:29.631Z,1009.05
2022-10-23T07:57:30.349Z,1009.04
2022-10-23T07:58:30.591Z,1008.97
2022-10-23T07:59:33.427Z,1008.99
2022-10-23T08:00:32.021Z,1008.99
2022-10-23T08:01:29.527Z,1008.90
2022-10-23T08:02:31.147Z,1008.90
2022-10-23T08:03:31.348Z,1008.86
2022-10-23T08:04:31.587Z,1008.88
2022-10-23T08:05:31.808Z,1008.84
2022-10-23T08:06:32.054Z,1008.80
2022-10-23T08:07:30.197Z,1008.76
2022-10-23T08:08:30.367Z,1008.77
2022-10-23T08:09:30.458Z,1008.76
2022-10-23T08:10:30.640Z,1008.72
2022-10-23T08:11:32.377Z,1008.73
2022-10-23T08:12:30.887Z,1008.73
2022-10-23T08:13:31.050Z,1008.71
2022-10-23T08:14:31.196Z,1008.76
2022-10-23T08:15:32.938Z,1008.76
2022-10-23T08:16:31.439Z,1008.81
2022-10-23T08:17:31.579Z,1008.79
2022-10-23T08:18:33.328Z,1008.78
2022-10-23T08:19:33.567Z,1008.78
2022-10-23T08:20:33.826Z,1008.77
2022-10-23T08:21:34.051Z,1008.78
2022-10-23T08:22:34.269Z,1008.74
2022-10-23T08:23:33.998Z,1008.71
2022-10-23T08:24:34.232Z,1008.70
2022-10-23T08:25:34.448Z,1008.67
2022-10-23T08:26:34.696Z,1008.65
2022-10-23T08:27:34.939Z,1008.65
2022-10-23T08:28:34.670Z,1008.66
2022-10-23T08:29:34.895Z,1008.71
2022-10-23T08:30:35.130Z,1008.74
2022-10-23T08:31:35.356Z,1008.83
2022-10-23T08:32:35.593Z,1008.74
2022-10-23T08:33:35.316Z,1008.70
2022-10-23T08:34:35.537Z,1008.75
2022-10-23T08:35:35.776Z,1008.80
2022-10-23T08:36:36.005Z,1008.77
2022-10-23T08:37:36.234Z,1008.85
2022-10-23T08:38:34.343Z,1008.78
2022-10-23T08:39:34.444Z,1008.81
2022-10-23T08:40:36.275Z,1008.70
2022-10-23T08:41:36.413Z,1008.72
2022-10-23T08:42:34.862Z,1008.69
2022-10-23T08:43:36.662Z,1008.69
2022-10-23T08:44:35.057Z,1008.67
2022-10-23T08:45:35.162Z,1008.67
2022-10-23T08:46:35.313Z,1008.67
2022-10-23T08:47:35.469Z,1008.63
2022-10-23T08:48:35.551Z,1008.66
2022-10-23T08:49:37.297Z,1008.65
2022-10-23T08:50:35.833Z,1008.70
2022-10-23T08:51:37.563Z,1008.69
2022-10-23T08:52:37.781Z,1008.68
2022-10-23T08:53:38.063Z,1008.67
2022-10-23T08:54:38.233Z,1008.68
2022-10-23T08:55:37.951Z,1008.71
2022-10-23T08:56:38.193Z,1008.73
2022-10-23T08:57:41.342Z,1008.75
2022-10-23T08:58:37.800Z,1008.72
2022-10-23T08:59:38.526Z,1008.70
2022-10-23T09:00:38.815Z,1008.71
2022-10-23T09:01:39.102Z,1008.72
2022-10-23T09:02:39.234Z,1008.69
2022-10-23T09:03:39.450Z,1008.67
2022-10-23T09:04:39.181Z,1008.70
2022-10-23T09:05:39.399Z,1008.67
2022-10-23T09:06:39.656Z,1008.69
2022-10-23T09:07:40.156Z,1008.73
2022-10-23T09:08:40.100Z,1008.70
2022-10-23T09:09:38.259Z,1008.66
2022-10-23T09:10:39.999Z,1008.68
2022-10-23T09:11:40.229Z,1008.66
2022-10-23T09:12:40.486Z,1008.63
2022-10-23T09:13:40.698Z,1008.63
2022-10-23T09:14:38.910Z,1008.56
2022-10-23T09:15:39.009Z,1008.53
2022-10-23T09:16:39.159Z,1008.56
2022-10-23T09:17:41.312Z,1008.51
2022-10-23T09:18:39.497Z,1008.46
2022-10-23T09:19:39.590Z,1008.51
2022-10-23T09:20:39.766Z,1008.51
2022-10-23T09:21:39.911Z,1008.46
2022-10-23T09:22:40.673Z,1008.49
2022-10-23T09:23:40.141Z,1008.53
2022-10-23T09:24:40.298Z,1008.53
2022-10-23T09:25:41.060Z,1008.51
2022-10-23T09:26:42.316Z,1008.53
2022-10-23T09:27:42.738Z,1008.56
2022-10-23T09:28:42.799Z,1008.59
2022-10-23T09:29:42.516Z,1008.57
2022-10-23T09:30:42.757Z,1008.54
2022-10-23T09:31:42.958Z,1008.59
2022-10-23T09:32:43.188Z,1008.54
2022-10-23T09:33:43.416Z,1008.57
2022-10-23T09:34:43.166Z,1008.58
2022-10-23T09:35:43.405Z,1008.50
2022-10-23T09:36:43.664Z,1008.46
2022-10-23T09:37:44.140Z,1008.43
2022-10-23T09:38:44.126Z,1008.33
2022-10-23T09:39:43.887Z,1008.32
2022-10-23T09:40:44.085Z,1008.28
2022-10-23T09:41:44.316Z,1008.25
2022-10-23T09:42:42.684Z,1008.22
2022-10-23T09:43:42.806Z,1008.20
2022-10-23T09:44:42.984Z,1008.26
2022-10-23T09:45:43.096Z,1008.22
2022-10-23T09:46:44.913Z,1008.21
2022-10-23T09:47:43.621Z,1008.21
2022-10-23T09:48:44.563Z,1008.16
2022-10-23T09:49:43.659Z,1008.16
2022-10-23T09:50:43.756Z,1008.15
2022-10-23T09:51:43.904Z,1008.16
2022-10-23T09:52:44.085Z,1008.17
2022-10-23T09:53:46.748Z,1008.19
2022-10-23T09:54:46.053Z,1008.12
2022-10-23T09:55:44.484Z,1008.06
2022-10-23T09:56:44.685Z,1008.09
2022-10-23T09:57:46.704Z,1008.06
2022-10-23T09:58:46.607Z,1008.02
2022-10-23T09:59:45.120Z,1008.01
2022-10-23T10:00:46.378Z,1007.97
2022-10-23T10:01:46.221Z,1007.98
2022-10-23T10:13:09.945Z,1008.01
2022-10-23T10:14:07.658Z,1008.05
2022-10-23T10:15:09.380Z,1007.98
2022-10-23T10:16:07.878Z,1008.02
2022-10-23T10:17:07.988Z,1007.92
2022-10-23T10:18:09.095Z,1007.97
2022-10-23T10:19:09.795Z,1007.92
2022-10-23T10:20:09.525Z,1007.92
2022-10-23T10:21:10.271Z,1007.90
2022-10-23T10:22:08.676Z,1007.86
2022-10-23T10:23:10.396Z,1007.89
2022-10-23T10:24:09.040Z,1007.83
2022-10-23T10:25:09.149Z,1007.89
2022-10-23T10:26:09.195Z,1007.86
2022-10-23T10:27:09.349Z,1007.83
2022-10-23T10:28:11.055Z,1007.84
2022-10-23T10:29:09.668Z,1007.83
2022-10-23T10:30:09.844Z,1007.79
2022-10-23T10:31:10.934Z,1007.79
2022-10-23T10:32:10.074Z,1007.76
2022-10-23T10:33:11.791Z,1007.73
2022-10-23T10:34:10.411Z,1007.75
2022-10-23T10:35:10.562Z,1007.74
2022-10-23T10:36:10.714Z,1007.74
2022-10-23T10:37:10.853Z,1007.72
2022-10-23T10:38:12.574Z,1007.77
2022-10-23T10:39:11.111Z,1007.74
2022-10-23T10:40:12.840Z,1007.69
2022-10-23T10:41:11.423Z,1007.69
2022-10-23T10:42:11.582Z,1007.66
2022-10-23T10:43:11.741Z,1007.67
2022-10-23T10:44:11.905Z,1007.61
2022-10-23T10:45:12.003Z,1007.64
2022-10-23T10:46:13.741Z,1007.64
2022-10-23T10:47:14.011Z,1007.67
2022-10-23T10:48:13.432Z,1007.67
2022-10-23T10:49:12.592Z,1007.69
2022-10-23T10:50:12.753Z,1007.65
2022-10-23T10:51:14.484Z,1007.64
2022-10-23T10:52:13.060Z,1007.64
2022-10-23T10:53:13.231Z,1007.61
2022-10-23T10:54:13.312Z,1007.61
2022-10-23T10:55:15.041Z,1007.63
2022-10-23T10:56:15.263Z,1007.63
2022-10-23T10:57:13.714Z,1007.62
2022-10-23T10:58:13.790Z,1007.58
2022-10-23T10:59:13.904Z,1007.62
2022-10-23T11:00:15.690Z,1007.55
2022-10-23T11:01:15.948Z,1007.60
2022-10-23T11:02:14.424Z,1007.54
2022-10-23T11:03:14.453Z,1007.49
2022-10-23T11:04:14.619Z,1007.46
2022-10-23T11:05:16.369Z,1007.41
2022-10-23T11:06:14.891Z,1007.38
2022-10-23T11:07:15.075Z,1007.37
2022-10-23T11:08:15.169Z,1007.36
2022-10-23T11:09:20.794Z,1007.31
2022-10-23T11:10:17.123Z,1007.25
2022-10-23T11:11:15.602Z,1007.22
2022-10-23T11:12:17.350Z,1007.21
2022-10-23T11:13:15.864Z,1007.18
2022-10-23T11:14:17.636Z,1007.14
2022-10-23T11:15:17.862Z,1007.12
2022-10-23T11:16:17.228Z,1007.11
2022-10-23T11:17:17.999Z,1007.06
2022-10-23T11:18:17.544Z,1007.07
2022-10-23T11:19:18.289Z,1007.08
2022-10-23T11:20:18.487Z,1007.07
2022-10-23T11:21:18.698Z,1007.08
2022-10-23T11:22:17.029Z,1007.09
2022-10-23T11:23:18.757Z,1007.06
2022-10-23T11:24:17.288Z,1007.05
2022-10-23T11:25:19.004Z,1007.03
2022-10-23T11:26:19.738Z,1007.01
2022-10-23T11:27:17.759Z,1006.98
2022-10-23T11:28:19.505Z,1007.00
2022-10-23T11:29:18.027Z,1006.94
2022-10-23T11:30:20.277Z,1006.91
2022-10-23T11:31:18.278Z,1006.91
2022-10-23T11:32:18.437Z,1006.87
2022-10-23T11:33:20.129Z,1006.86
2022-10-23T11:34:18.707Z,1006.82
2022-10-23T11:35:20.421Z,1006.86
2022-10-23T11:36:20.666Z,1006.82
2022-10-23T11:37:19.035Z,1006.82
2022-10-23T11:38:20.783Z,1006.79
2022-10-23T11:39:19.299Z,1006.72
2022-10-23T11:40:21.052Z,1006.74
2022-10-23T11:41:25.315Z,1006.68
2022-10-23T11:42:20.731Z,1006.62
2022-10-23T11:43:19.836Z,1006.63
2022-10-23T11:44:21.576Z,1006.63
2022-10-23T11:45:21.815Z,1006.64
2022-10-23T11:46:22.080Z,1006.61
2022-10-23T11:47:20.441Z,1006.59
2022-10-23T11:48:22.181Z,1006.59
2022-10-23T11:49:20.645Z,1006.61
2022-10-23T11:50:22.399Z,1006.57
2022-10-23T11:51:22.574Z,1006.52
2022-10-23T11:52:21.095Z,1006.49
2022-10-23T11:53:23.163Z,1006.43
2022-10-23T11:54:23.057Z,1006.40
2022-10-23T11:55:23.275Z,1006.45
2022-10-23T11:56:23.541Z,1006.45
2022-10-23T11:57:23.259Z,1006.44
2022-10-23T11:58:23.468Z,1006.39
2022-10-23T11:59:21.945Z,1006.37
2022-10-23T12:00:23.173Z,1006.35
2022-10-23T12:01:22.279Z,1006.32
2022-10-23T12:02:22.425Z,1006.35
2022-10-23T12:03:22.505Z,1006.33
2022-10-23T12:04:24.216Z,1006.24
2022-10-23T12:05:24.443Z,1006.29
2022-10-23T12:06:24.662Z,1006.27
2022-10-23T12:07:24.892Z,1006.22
2022-10-23T12:08:25.113Z,1006.19
2022-10-23T12:09:25.343Z,1006.21
2022-10-23T12:10:25.073Z,1006.16
2022-10-23T12:11:27.456Z,1006.16
2022-10-23T12:12:23.701Z,1006.07
2022-10-23T12:13:25.431Z,1005.96
2022-10-23T12:14:25.672Z,1005.93
2022-10-23T12:15:25.954Z,1005.90
2022-10-23T12:16:26.143Z,1005.86
2022-10-23T12:17:24.407Z,1005.94
2022-10-23T12:18:26.136Z,1005.92
2022-10-23T12:19:26.341Z,1005.91
2022-10-23T12:20:26.591Z,1005.89
2022-10-23T12:21:26.802Z,1005.83
2022-10-23T12:22:27.078Z,1005.77
2022-10-23T12:23:26.763Z,1005.78
2022-10-23T12:24:27.001Z,1005.75
2022-10-23T12:25:27.200Z,1005.73
2022-10-23T12:26:27.434Z,1005.71
2022-10-23T12:27:27.655Z,1005.72
2022-10-23T12:28:27.910Z,1005.78
2022-10-23T12:29:27.622Z,1005.71
2022-10-23T12:30:27.853Z,1005.70
2022-10-23T12:31:28.071Z,1005.72
2022-10-23T12:32:28.319Z,1005.72
2022-10-23T12:33:28.549Z,1005.72
2022-10-23T12:34:28.298Z,1005.69
2022-10-23T12:35:26.890Z,1005.75
2022-10-23T12:36:27.030Z,1005.76
2022-10-23T12:37:28.788Z,1005.67
2022-10-23T12:38:33.794Z,1005.70
2022-10-23T12:39:30.229Z,1005.67
2022-10-23T12:40:27.571Z,1005.67
2022-10-23T12:41:27.700Z,1005.64
2022-10-23T12:42:27.848Z,1005.60
2022-10-23T12:43:28.009Z,1005.56
2022-10-23T12:44:29.729Z,1005.54
2022-10-23T12:45:29.973Z,1005.49
2022-10-23T12:46:30.201Z,1005.49
2022-10-23T12:47:30.459Z,1005.44
2022-10-23T12:48:30.684Z,1005.41
2022-10-23T12:49:30.370Z,1005.43
2022-10-23T12:50:30.599Z,1005.36
2022-10-23T12:51:30.815Z,1005.34
2022-10-23T12:52:31.038Z,1005.25
2022-10-23T12:53:31.276Z,1005.24
2022-10-23T12:54:31.507Z,1005.18
2022-10-23T12:55:33.624Z,1005.16
2022-10-23T12:56:34.424Z,1005.19
2022-10-23T12:57:31.698Z,1005.08
2022-10-23T12:58:31.921Z,1005.08
2022-10-23T12:59:32.139Z,1005.06
2022-10-23T13:00:31.879Z,1005.06
2022-10-23T13:01:32.208Z,1005.04
2022-10-23T13:02:32.530Z,1005.00
2022-10-23T13:03:30.740Z,1005.03
2022-10-23T13:04:30.857Z,1004.98
2022-10-23T13:05:32.569Z,1004.89
2022-10-23T13:06:31.105Z,1004.89
2022-10-23T13:07:31.279Z,1004.82
2022-10-23T13:08:33.009Z,1004.78
2022-10-23T13:09:33.242Z,1004.78
2022-10-23T13:10:33.505Z,1004.86
2022-10-23T13:11:33.715Z,1004.85
2022-10-23T13:12:33.536Z,1004.85
2022-10-23T13:13:33.707Z,1004.99
2022-10-23T13:14:33.967Z,1005.02
2022-10-23T13:15:34.158Z,1005.02
2022-10-23T13:16:34.383Z,1005.03
2022-10-23T13:17:34.099Z,1005.04
2022-10-23T13:18:34.334Z,1005.09
2022-10-23T13:19:34.554Z,1005.08
2022-10-23T13:20:33.009Z,1005.04
2022-10-23T13:21:34.732Z,1005.02
2022-10-23T13:22:34.943Z,1005.06
2022-10-23T13:23:33.379Z,1005.07
2022-10-23T13:24:33.430Z,1005.01
2022-10-23T13:25:33.581Z,1005.06
2022-10-23T13:26:35.324Z,1005.01
2022-10-23T13:27:33.883Z,1004.95
2022-10-23T13:28:34.037Z,1004.89
2022-10-23T13:29:34.175Z,1004.85
2022-10-23T13:30:34.309Z,1004.85
2022-10-23T13:31:36.014Z,1004.93
2022-10-23T13:32:34.562Z,1004.85
2022-10-23T13:33:34.706Z,1004.89
2022-10-23T13:34:36.490Z,1004.93
2022-10-23T13:35:34.991Z,1004.98
2022-10-23T13:36:36.744Z,1004.93
2022-10-23T13:37:35.327Z,1004.93
2022-10-23T13:38:35.404Z,1004.92
2022-10-23T13:39:37.130Z,1004.91
2022-10-23T13:40:35.617Z,1004.85
2022-10-23T13:41:35.761Z,1004.75
2022-10-23T13:42:35.933Z,1004.82
2022-10-23T13:43:36.090Z,1004.77
2022-10-23T13:44:37.833Z,1004.70
2022-10-23T13:45:36.364Z,1004.65
2022-10-23T13:46:37.112Z,1004.58
2022-10-23T13:47:36.661Z,1004.56
2022-10-23T13:48:38.352Z,1004.53
2022-10-23T13:49:36.966Z,1004.53
2022-10-23T13:50:38.664Z,1004.48
2022-10-23T13:51:40.286Z,1004.50
2022-10-23T13:52:37.399Z,1004.44
2022-10-23T13:53:37.534Z,1004.40
2022-10-23T13:54:38.254Z,1004.37
2022-10-23T13:55:37.700Z,1004.22
2022-10-23T13:56:37.870Z,1004.21
2022-10-23T13:57:38.009Z,1004.18
2022-10-23T13:58:39.736Z,1004.14
2022-10-23T13:59:38.269Z,1004.10
2022-10-23T14:00:38.425Z,1003.99
2022-10-23T14:01:38.695Z,1003.85
2022-10-23T14:02:38.808Z,1003.83
2022-10-23T14:03:40.428Z,1003.81
2022-10-23T14:04:40.662Z,1003.83
2022-10-23T14:05:40.899Z,1003.88
2022-10-23T14:06:41.143Z,1003.80
2022-10-23T14:07:40.314Z,1003.86
2022-10-23T14:08:41.107Z,1003.90
2022-10-23T14:09:41.338Z,1003.84
2022-10-23T14:10:41.568Z,1003.87
2022-10-23T14:11:40.589Z,1003.85
2022-10-23T14:12:41.213Z,1003.84
2022-10-23T14:13:41.696Z,1003.89
2022-10-23T14:14:41.072Z,1003.86
2022-10-23T14:15:41.235Z,1003.88
2022-10-23T14:16:41.398Z,1003.91
2022-10-23T14:17:41.558Z,1003.91
2022-10-23T14:18:42.405Z,1003.92
2022-10-23T14:19:41.879Z,1003.93
2022-10-23T14:20:42.006Z,1003.96
2022-10-23T14:21:42.166Z,1003.98
2022-10-23T14:22:42.467Z,1004.05
2022-10-23T14:23:43.074Z,1004.03
2022-10-23T14:24:42.414Z,1003.95
2022-10-23T14:25:42.574Z,1003.92
2022-10-23T14:26:42.736Z,1003.86
2022-10-23T14:27:43.741Z,1003.81
2022-10-23T14:28:43.058Z,1003.81
2022-10-23T14:29:43.215Z,1003.76
2022-10-23T14:30:42.507Z,1003.80
2022-10-23T14:31:44.237Z,1003.80
2022-10-23T14:32:43.304Z,1003.80
2022-10-23T14:33:42.996Z,1003.70
2022-10-23T14:34:44.724Z,1003.73
2022-10-23T14:35:43.273Z,1003.78
2022-10-23T14:36:50.298Z,1003.80
2022-10-23T14:37:44.934Z,1003.78
2022-10-23T14:38:43.690Z,1003.76
2022-10-23T14:39:48.917Z,1003.81
2022-10-23T14:40:45.054Z,1003.85
2022-10-23T14:41:45.807Z,1003.85
2022-10-23T14:42:44.555Z,1003.90
2022-10-23T14:43:45.196Z,1003.85
2022-10-23T14:44:45.378Z,1003.90
2022-10-23T14:45:46.194Z,1003.88
2022-10-23T14:46:45.423Z,1003.76
2022-10-23T14:47:46.679Z,1003.78
2022-10-23T14:48:46.332Z,1003.71
2022-10-23T14:49:45.903Z,1003.67
2022-10-23T14:50:46.063Z,1003.65
2022-10-23T14:51:46.985Z,1003.56
2022-10-23T14:52:47.205Z,1003.46
2022-10-23T14:53:45.713Z,1003.40
2022-10-23T14:54:45.863Z,1003.37
2022-10-23T14:55:45.972Z,1003.30
2022-10-23T14:56:47.715Z,1003.35
2022-10-23T14:57:47.942Z,1003.31
2022-10-23T14:58:46.393Z,1003.30
2022-10-23T14:59:46.481Z,1003.34
2022-10-23T15:00:46.675Z,1003.35
2022-10-23T15:01:48.835Z,1003.42
2022-10-23T15:02:46.944Z,1003.45
2022-10-23T15:03:47.032Z,1003.43
2022-10-23T15:04:49.722Z,1003.36
2022-10-23T15:05:47.245Z,1003.37
2022-10-23T15:06:48.991Z,1003.41
2022-10-23T15:07:50.160Z,1003.43
2022-10-23T15:08:48.431Z,1003.31
2022-10-23T15:09:48.600Z,1003.28
2022-10-23T15:10:50.501Z,1003.28
2022-10-23T15:11:48.911Z,1003.34
2022-10-23T15:12:50.780Z,1003.32
2022-10-23T15:13:49.231Z,1003.28
2022-10-23T15:14:49.390Z,1003.25
2022-10-23T15:15:49.551Z,1003.31
2022-10-23T15:16:49.720Z,1003.30
2022-10-23T15:17:51.446Z,1003.23
2022-10-23T15:18:50.030Z,1003.22
2022-10-23T15:19:49.931Z,1003.22
2022-10-23T15:20:50.097Z,1003.16
2022-10-23T15:21:51.108Z,1003.21
2022-10-23T15:22:52.270Z,1003.23
2022-10-23T15:23:50.582Z,1003.21
2022-10-23T15:24:50.739Z,1003.28
2022-10-23T15:25:51.650Z,1003.30
2022-10-23T15:26:51.050Z,1003.26
2022-10-23T15:27:51.225Z,1003.29
2022-10-23T15:28:52.019Z,1003.27
2022-10-23T15:29:51.286Z,1003.26
2022-10-23T15:30:51.438Z,1003.25
2022-10-23T15:31:52.391Z,1003.21
2022-10-23T15:32:51.759Z,1003.16
2022-10-23T15:33:51.919Z,1003.19
2022-10-23T15:34:52.083Z,1003.14
2022-10-23T15:35:52.999Z,1003.16
2022-10-23T15:36:53.247Z,1003.13
2022-10-23T15:37:53.453Z,1003.12
2022-10-23T15:38:53.179Z,1003.15
2022-10-23T15:39:55.322Z,1003.10
2022-10-23T15:40:51.888Z,1003.11
2022-10-23T15:41:52.057Z,1003.06
2022-10-23T15:42:53.769Z,1003.02
2022-10-23T15:43:52.335Z,1003.00
2022-10-23T15:44:54.069Z,1002.98
2022-10-23T15:45:52.598Z,1002.96
2022-10-23T15:46:54.330Z,1002.96
2022-10-23T15:47:55.269Z,1002.95
2022-10-23T15:48:54.539Z,1002.94
2022-10-23T15:49:53.968Z,1002.91
2022-10-23T15:50:54.125Z,1002.89
2022-10-23T15:51:54.295Z,1002.87
2022-10-23T15:52:54.426Z,1002.84
2022-10-23T15:53:54.448Z,1002.84
2022-10-23T15:54:55.322Z,1002.80
2022-10-23T15:55:53.895Z,1002.79
2022-10-23T15:56:54.829Z,1002.74
2022-10-23T15:57:54.992Z,1002.70
2022-10-23T15:58:55.909Z,1002.66
2022-10-23T15:59:56.141Z,1002.71
2022-10-23T16:00:55.590Z,1002.65
2022-10-23T16:12:19.256Z,1002.54
2022-10-23T16:13:19.516Z,1002.53
2022-10-23T16:14:19.236Z,1002.56
2022-10-23T16:15:19.470Z,1002.55
2022-10-23T16:16:19.678Z,1002.50
2022-10-23T16:17:19.905Z,1002.48
2022-10-23T16:18:20.094Z,1002.44
2022-10-23T16:19:19.839Z,1002.46
2022-10-23T16:20:20.164Z,1002.49
2022-10-23T16:21:20.293Z,1002.41
2022-10-23T16:22:20.559Z,1002.46
2022-10-23T16:23:20.806Z,1002.40
2022-10-23T16:24:20.526Z,1002.37
2022-10-23T16:25:20.787Z,1002.28
2022-10-23T16:26:20.992Z,1002.26
2022-10-23T16:27:21.214Z,1002.20